sensor_id;sensor_type;location;lat;lon;timestamp;P1;durP1;ratioP1;P2;durP2;ratioP2
11504;SDS011;5809;53.262;10.408;2022-09-16T00:00:36;8.37;;;4.40;;
11504;SDS011;5809;53.262;10.408;2022-09-16T00:03:03;11.67;;;4.70;;
11504;SDS011;5809;53.262;10.408;2022-09-16T00:05:31;6.97;;;4.50;;
11504;SDS011;5809;53.262;10.408;2022-09-16T00:07:59;8.37;;;4.53;;
11504;SDS011;5809;53.262;10.408;2022-09-16T00:10:26;10.70;;;5.20;;
11504;SDS011;5809;53.262;10.408;2022-09-16T00:12:53;11.20;;;5.10;;
11504;SDS011;5809;53.262;10.408;2022-09-16T00:15:20;10.90;;;5.00;;
11504;SDS011;5809;53.262;10.408;2022-09-16T00:17:47;10.53;;;5.10;;
11504;SDS011;5809;53.262;10.408;2022-09-16T00:20:14;8.53;;;5.30;;
11504;SDS011;5809;53.262;10.408;2022-09-16T00:22:43;10.57;;;5.50;;
11504;SDS011;5809;53.262;10.408;2022-09-16T00:25:10;10.60;;;5.13;;
11504;SDS011;5809;53.262;10.408;2022-09-16T00:27:37;8.50;;;5.07;;
11504;SDS011;5809;53.262;10.408;2022-09-16T00:30:04;10.97;;;5.23;;
11504;SDS011;5809;53.262;10.408;2022-09-16T00:32:31;12.10;;;5.17;;
11504;SDS011;5809;53.262;10.408;2022-09-16T00:34:58;8.67;;;4.10;;
11504;SDS011;5809;53.262;10.408;2022-09-16T00:37:25;6.63;;;4.20;;
11504;SDS011;5809;53.262;10.408;2022-09-16T00:39:54;9.47;;;4.30;;
11504;SDS011;5809;53.262;10.408;2022-09-16T00:42:21;10.13;;;4.27;;
11504;SDS011;5809;53.262;10.408;2022-09-16T00:44:53;10.33;;;4.20;;
11504;SDS011;5809;53.262;10.408;2022-09-16T00:47:22;6.97;;;3.63;;
11504;SDS011;5809;53.262;10.408;2022-09-16T00:49:50;9.90;;;3.90;;
11504;SDS011;5809;53.262;10.408;2022-09-16T00:52:19;8.20;;;4.10;;
11504;SDS011;5809;53.262;10.408;2022-09-16T00:54:47;5.83;;;3.40;;
11504;SDS011;5809;53.262;10.408;2022-09-16T00:57:16;6.20;;;2.80;;
11504;SDS011;5809;53.262;10.408;2022-09-16T00:59:45;6.33;;;3.37;;
11504;SDS011;5809;53.262;10.408;2022-09-16T01:02:15;7.30;;;2.90;;
11504;SDS011;5809;53.262;10.408;2022-09-16T01:04:44;6.23;;;2.80;;
11504;SDS011;5809;53.262;10.408;2022-09-16T01:07:12;8.77;;;3.07;;
11504;SDS011;5809;53.262;10.408;2022-09-16T01:09:40;9.00;;;2.80;;
11504;SDS011;5809;53.262;10.408;2022-09-16T01:12:07;7.30;;;2.60;;
11504;SDS011;5809;53.262;10.408;2022-09-16T01:14:36;6.53;;;2.50;;
11504;SDS011;5809;53.262;10.408;2022-09-16T01:17:20;7.57;;;2.93;;
11504;SDS011;5809;53.262;10.408;2022-09-16T01:20:02;3.90;;;2.57;;
11504;SDS011;5809;53.262;10.408;2022-09-16T01:22:37;7.47;;;3.20;;
11504;SDS011;5809;53.262;10.408;2022-09-16T01:25:13;8.30;;;3.47;;
11504;SDS011;5809;53.262;10.408;2022-09-16T01:27:44;9.53;;;3.40;;
11504;SDS011;5809;53.262;10.408;2022-09-16T01:33:11;10.53;;;3.73;;
11504;SDS011;5809;53.262;10.408;2022-09-16T01:35:43;5.00;;;3.40;;
11504;SDS011;5809;53.262;10.408;2022-09-16T01:38:18;4.77;;;3.70;;
11504;SDS011;5809;53.262;10.408;2022-09-16T01:40:48;6.67;;;3.53;;
11504;SDS011;5809;53.262;10.408;2022-09-16T01:43:24;7.40;;;3.80;;
11504;SDS011;5809;53.262;10.408;2022-09-16T01:45:56;10.40;;;4.07;;
11504;SDS011;5809;53.262;10.408;2022-09-16T01:48:31;8.80;;;4.40;;
11504;SDS011;5809;53.262;10.408;2022-09-16T01:51:01;7.50;;;3.67;;
11504;SDS011;5809;53.262;10.408;2022-09-16T01:53:32;6.17;;;3.90;;
11504;SDS011;5809;53.262;10.408;2022-09-16T01:56:02;7.17;;;4.20;;
11504;SDS011;5809;53.262;10.408;2022-09-16T01:58:34;8.30;;;4.30;;
11504;SDS011;5809;53.262;10.408;2022-09-16T02:01:03;10.67;;;5.20;;
11504;SDS011;5809;53.262;10.408;2022-09-16T02:03:37;6.03;;;5.10;;
11504;SDS011;5809;53.262;10.408;2022-09-16T02:06:05;8.37;;;5.73;;
11504;SDS011;5809;53.262;10.408;2022-09-16T02:08:36;9.73;;;6.60;;
11504;SDS011;5809;53.262;10.408;2022-09-16T02:11:07;9.13;;;7.77;;
11504;SDS011;5809;53.262;10.408;2022-09-16T02:13:36;11.20;;;8.53;;
11504;SDS011;5809;53.262;10.408;2022-09-16T02:16:06;12.97;;;8.80;;
11504;SDS011;5809;53.262;10.408;2022-09-16T02:18:36;10.40;;;9.17;;
11504;SDS011;5809;53.262;10.408;2022-09-16T02:21:06;11.33;;;8.90;;
11504;SDS011;5809;53.262;10.408;2022-09-16T02:23:36;10.57;;;8.33;;
11504;SDS011;5809;53.262;10.408;2022-09-16T02:26:05;13.60;;;9.23;;
11504;SDS011;5809;53.262;10.408;2022-09-16T02:28:36;13.40;;;9.13;;
11504;SDS011;5809;53.262;10.408;2022-09-16T02:31:07;11.97;;;8.73;;
11504;SDS011;5809;53.262;10.408;2022-09-16T02:33:37;12.10;;;8.90;;
11504;SDS011;5809;53.262;10.408;2022-09-16T02:36:06;11.83;;;8.20;;
11504;SDS011;5809;53.262;10.408;2022-09-16T02:38:39;10.87;;;8.40;;
11504;SDS011;5809;53.262;10.408;2022-09-16T02:41:06;16.20;;;8.07;;
11504;SDS011;5809;53.262;10.408;2022-09-16T02:43:38;13.67;;;8.93;;
11504;SDS011;5809;53.262;10.408;2022-09-16T02:46:07;12.37;;;7.87;;
11504;SDS011;5809;53.262;10.408;2022-09-16T02:48:45;13.20;;;8.13;;
11504;SDS011;5809;53.262;10.408;2022-09-16T02:51:17;11.80;;;7.73;;
11504;SDS011;5809;53.262;10.408;2022-09-16T02:53:53;10.83;;;7.90;;
11504;SDS011;5809;53.262;10.408;2022-09-16T02:56:26;12.10;;;8.23;;
11504;SDS011;5809;53.262;10.408;2022-09-16T02:58:55;9.57;;;7.40;;
11504;SDS011;5809;53.262;10.408;2022-09-16T03:01:22;12.03;;;9.07;;
11504;SDS011;5809;53.262;10.408;2022-09-16T03:03:51;10.80;;;8.60;;
11504;SDS011;5809;53.262;10.408;2022-09-16T03:06:21;12.03;;;8.33;;
11504;SDS011;5809;53.262;10.408;2022-09-16T03:08:49;13.10;;;8.60;;
11504;SDS011;5809;53.262;10.408;2022-09-16T03:11:28;12.93;;;8.20;;
11504;SDS011;5809;53.262;10.408;2022-09-16T03:14:02;9.83;;;8.60;;
11504;SDS011;5809;53.262;10.408;2022-09-16T03:16:33;12.30;;;8.73;;
11504;SDS011;5809;53.262;10.408;2022-09-16T03:19:06;12.17;;;7.60;;
11504;SDS011;5809;53.262;10.408;2022-09-16T03:21:39;10.20;;;7.60;;
11504;SDS011;5809;53.262;10.408;2022-09-16T03:24:07;11.80;;;6.70;;
11504;SDS011;5809;53.262;10.408;2022-09-16T03:26:42;8.60;;;6.70;;
11504;SDS011;5809;53.262;10.408;2022-09-16T03:29:14;11.43;;;6.27;;
11504;SDS011;5809;53.262;10.408;2022-09-16T03:31:50;11.33;;;6.43;;
11504;SDS011;5809;53.262;10.408;2022-09-16T03:34:24;9.63;;;5.83;;
11504;SDS011;5809;53.262;10.408;2022-09-16T03:36:53;8.67;;;5.33;;
11504;SDS011;5809;53.262;10.408;2022-09-16T03:39:24;9.27;;;5.43;;
11504;SDS011;5809;53.262;10.408;2022-09-16T03:41:51;9.30;;;5.87;;
11504;SDS011;5809;53.262;10.408;2022-09-16T03:44:20;6.77;;;5.67;;
11504;SDS011;5809;53.262;10.408;2022-09-16T03:46:46;7.97;;;5.90;;
11504;SDS011;5809;53.262;10.408;2022-09-16T03:49:14;11.33;;;6.57;;
11504;SDS011;5809;53.262;10.408;2022-09-16T03:51:43;9.57;;;6.67;;
11504;SDS011;5809;53.262;10.408;2022-09-16T03:54:10;11.17;;;6.87;;
11504;SDS011;5809;53.262;10.408;2022-09-16T03:56:37;11.43;;;7.20;;
11504;SDS011;5809;53.262;10.408;2022-09-16T03:59:04;9.80;;;7.67;;
11504;SDS011;5809;53.262;10.408;2022-09-16T04:01:31;12.17;;;7.37;;
11504;SDS011;5809;53.262;10.408;2022-09-16T04:03:58;8.17;;;7.33;;
11504;SDS011;5809;53.262;10.408;2022-09-16T04:06:25;12.73;;;8.13;;
11504;SDS011;5809;53.262;10.408;2022-09-16T04:08:54;11.20;;;8.17;;
11504;SDS011;5809;53.262;10.408;2022-09-16T04:11:21;10.30;;;8.73;;
11504;SDS011;5809;53.262;10.408;2022-09-16T04:13:48;14.13;;;9.43;;
11504;SDS011;5809;53.262;10.408;2022-09-16T04:16:17;18.10;;;9.80;;
11504;SDS011;5809;53.262;10.408;2022-09-16T04:18:46;13.77;;;9.93;;
11504;SDS011;5809;53.262;10.408;2022-09-16T04:21:13;11.87;;;10.47;;
11504;SDS011;5809;53.262;10.408;2022-09-16T04:23:40;14.80;;;9.90;;
11504;SDS011;5809;53.262;10.408;2022-09-16T04:26:09;15.03;;;11.00;;
11504;SDS011;5809;53.262;10.408;2022-09-16T04:28:37;13.67;;;11.20;;
11504;SDS011;5809;53.262;10.408;2022-09-16T04:31:04;13.63;;;11.17;;
11504;SDS011;5809;53.262;10.408;2022-09-16T04:33:33;13.73;;;11.77;;
11504;SDS011;5809;53.262;10.408;2022-09-16T04:36:01;15.37;;;11.33;;
11504;SDS011;5809;53.262;10.408;2022-09-16T04:38:29;13.73;;;11.23;;
11504;SDS011;5809;53.262;10.408;2022-09-16T04:40:59;12.57;;;10.80;;
11504;SDS011;5809;53.262;10.408;2022-09-16T04:43:28;19.70;;;12.43;;
11504;SDS011;5809;53.262;10.408;2022-09-16T04:45:55;18.37;;;11.40;;
11504;SDS011;5809;53.262;10.408;2022-09-16T04:48:22;14.57;;;11.37;;
11504;SDS011;5809;53.262;10.408;2022-09-16T04:50:50;15.47;;;11.53;;
11504;SDS011;5809;53.262;10.408;2022-09-16T04:53:17;13.50;;;11.27;;
11504;SDS011;5809;53.262;10.408;2022-09-16T04:55:45;14.03;;;11.53;;
11504;SDS011;5809;53.262;10.408;2022-09-16T04:58:12;13.57;;;10.83;;
11504;SDS011;5809;53.262;10.408;2022-09-16T05:00:41;15.23;;;11.27;;
11504;SDS011;5809;53.262;10.408;2022-09-16T05:03:09;13.47;;;10.73;;
11504;SDS011;5809;53.262;10.408;2022-09-16T05:05:36;12.73;;;10.80;;
11504;SDS011;5809;53.262;10.408;2022-09-16T05:08:03;16.23;;;10.73;;
11504;SDS011;5809;53.262;10.408;2022-09-16T05:10:30;14.50;;;11.27;;
11504;SDS011;5809;53.262;10.408;2022-09-16T05:12:57;10.67;;;9.57;;
11504;SDS011;5809;53.262;10.408;2022-09-16T05:15:24;10.17;;;8.87;;
11504;SDS011;5809;53.262;10.408;2022-09-16T05:17:52;10.27;;;8.43;;
11504;SDS011;5809;53.262;10.408;2022-09-16T05:20:19;10.97;;;8.13;;
11504;SDS011;5809;53.262;10.408;2022-09-16T05:22:47;9.70;;;7.10;;
11504;SDS011;5809;53.262;10.408;2022-09-16T05:25:15;8.77;;;6.63;;
11504;SDS011;5809;53.262;10.408;2022-09-16T05:27:42;10.53;;;7.27;;
11504;SDS011;5809;53.262;10.408;2022-09-16T05:30:10;10.60;;;6.43;;
11504;SDS011;5809;53.262;10.408;2022-09-16T05:32:38;8.30;;;6.90;;
11504;SDS011;5809;53.262;10.408;2022-09-16T05:35:07;11.50;;;6.37;;
11504;SDS011;5809;53.262;10.408;2022-09-16T05:37:35;8.63;;;6.80;;
11504;SDS011;5809;53.262;10.408;2022-09-16T05:40:02;9.23;;;6.63;;
11504;SDS011;5809;53.262;10.408;2022-09-16T05:42:29;12.33;;;7.80;;
11504;SDS011;5809;53.262;10.408;2022-09-16T05:44:56;12.03;;;7.70;;
11504;SDS011;5809;53.262;10.408;2022-09-16T05:47:23;10.23;;;7.23;;
11504;SDS011;5809;53.262;10.408;2022-09-16T05:49:51;17.57;;;8.00;;
11504;SDS011;5809;53.262;10.408;2022-09-16T05:52:20;11.83;;;7.23;;
11504;SDS011;5809;53.262;10.408;2022-09-16T05:54:48;8.67;;;6.97;;
11504;SDS011;5809;53.262;10.408;2022-09-16T05:57:15;11.37;;;6.63;;
11504;SDS011;5809;53.262;10.408;2022-09-16T05:59:42;9.30;;;6.30;;
11504;SDS011;5809;53.262;10.408;2022-09-16T06:02:09;10.73;;;6.47;;
11504;SDS011;5809;53.262;10.408;2022-09-16T06:04:37;9.40;;;5.50;;
11504;SDS011;5809;53.262;10.408;2022-09-16T06:07:04;7.77;;;5.23;;
11504;SDS011;5809;53.262;10.408;2022-09-16T06:09:33;10.37;;;5.10;;
11504;SDS011;5809;53.262;10.408;2022-09-16T06:12:01;8.73;;;4.90;;
11504;SDS011;5809;53.262;10.408;2022-09-16T06:14:28;6.17;;;4.87;;
11504;SDS011;5809;53.262;10.408;2022-09-16T06:16:55;7.50;;;4.30;;
11504;SDS011;5809;53.262;10.408;2022-09-16T06:19:22;6.23;;;3.80;;
11504;SDS011;5809;53.262;10.408;2022-09-16T06:21:49;6.53;;;3.67;;
11504;SDS011;5809;53.262;10.408;2022-09-16T06:24:17;7.53;;;4.30;;
11504;SDS011;5809;53.262;10.408;2022-09-16T06:26:47;6.00;;;3.57;;
11504;SDS011;5809;53.262;10.408;2022-09-16T06:29:14;8.27;;;3.30;;
11504;SDS011;5809;53.262;10.408;2022-09-16T06:31:42;7.53;;;2.60;;
11504;SDS011;5809;53.262;10.408;2022-09-16T06:34:12;6.53;;;3.03;;
11504;SDS011;5809;53.262;10.408;2022-09-16T06:36:39;5.32;;;2.55;;
11504;SDS011;5809;53.262;10.408;2022-09-16T06:39:06;6.30;;;2.60;;
11504;SDS011;5809;53.262;10.408;2022-09-16T06:41:36;6.07;;;2.38;;
11504;SDS011;5809;53.262;10.408;2022-09-16T06:44:04;7.72;;;2.20;;
11504;SDS011;5809;53.262;10.408;2022-09-16T06:46:31;5.47;;;1.88;;
11504;SDS011;5809;53.262;10.408;2022-09-16T06:48:58;4.22;;;1.73;;
11504;SDS011;5809;53.262;10.408;2022-09-16T06:51:26;3.05;;;1.27;;
11504;SDS011;5809;53.262;10.408;2022-09-16T06:53:57;3.20;;;1.50;;
11504;SDS011;5809;53.262;10.408;2022-09-16T06:56:25;5.82;;;1.58;;
11504;SDS011;5809;53.262;10.408;2022-09-16T06:58:52;4.65;;;1.58;;
11504;SDS011;5809;53.262;10.408;2022-09-16T07:01:21;6.47;;;1.50;;
11504;SDS011;5809;53.262;10.408;2022-09-16T07:03:49;5.45;;;1.50;;
11504;SDS011;5809;53.262;10.408;2022-09-16T07:06:17;4.43;;;1.50;;
11504;SDS011;5809;53.262;10.408;2022-09-16T07:08:45;6.50;;;1.52;;
11504;SDS011;5809;53.262;10.408;2022-09-16T07:11:13;4.45;;;1.40;;
11504;SDS011;5809;53.262;10.408;2022-09-16T07:13:40;5.63;;;1.40;;
11504;SDS011;5809;53.262;10.408;2022-09-16T07:16:09;4.68;;;1.40;;
11504;SDS011;5809;53.262;10.408;2022-09-16T07:18:38;6.32;;;1.55;;
11504;SDS011;5809;53.262;10.408;2022-09-16T07:21:06;5.97;;;1.30;;
11504;SDS011;5809;53.262;10.408;2022-09-16T07:23:34;6.03;;;1.30;;
11504;SDS011;5809;53.262;10.408;2022-09-16T07:26:02;6.28;;;1.42;;
11504;SDS011;5809;53.262;10.408;2022-09-16T07:28:30;3.40;;;1.20;;
11504;SDS011;5809;53.262;10.408;2022-09-16T07:30:59;6.22;;;1.70;;
11504;SDS011;5809;53.262;10.408;2022-09-16T07:33:27;7.45;;;1.75;;
11504;SDS011;5809;53.262;10.408;2022-09-16T07:35:58;19.48;;;10.25;;
11504;SDS011;5809;53.262;10.408;2022-09-16T07:38:25;10.57;;;3.22;;
11504;SDS011;5809;53.262;10.408;2022-09-16T07:40:52;10.55;;;8.07;;
11504;SDS011;5809;53.262;10.408;2022-09-16T07:43:19;3.65;;;1.60;;
11504;SDS011;5809;53.262;10.408;2022-09-16T07:45:53;8.07;;;2.00;;
11504;SDS011;5809;53.262;10.408;2022-09-16T07:48:21;3.67;;;1.55;;
11504;SDS011;5809;53.262;10.408;2022-09-16T07:50:53;3.92;;;1.40;;
11504;SDS011;5809;53.262;10.408;2022-09-16T07:53:21;3.92;;;1.40;;
11504;SDS011;5809;53.262;10.408;2022-09-16T07:55:49;5.22;;;2.22;;
11504;SDS011;5809;53.262;10.408;2022-09-16T07:58:16;3.90;;;1.55;;
11504;SDS011;5809;53.262;10.408;2022-09-16T08:00:43;3.65;;;1.60;;
11504;SDS011;5809;53.262;10.408;2022-09-16T08:03:11;6.00;;;1.98;;
11504;SDS011;5809;53.262;10.408;2022-09-16T08:05:38;4.72;;;1.77;;
11504;SDS011;5809;53.262;10.408;2022-09-16T08:08:05;4.28;;;1.95;;
11504;SDS011;5809;53.262;10.408;2022-09-16T08:10:34;5.53;;;2.05;;
11504;SDS011;5809;53.262;10.408;2022-09-16T08:13:02;5.13;;;1.30;;
11504;SDS011;5809;53.262;10.408;2022-09-16T08:15:28;5.78;;;3.05;;
11504;SDS011;5809;53.262;10.408;2022-09-16T08:17:55;6.07;;;3.75;;
11504;SDS011;5809;53.262;10.408;2022-09-16T08:20:23;4.35;;;1.50;;
11504;SDS011;5809;53.262;10.408;2022-09-16T08:22:50;6.18;;;1.50;;
11504;SDS011;5809;53.262;10.408;2022-09-16T08:25:17;4.82;;;1.67;;
11504;SDS011;5809;53.262;10.408;2022-09-16T08:27:46;4.82;;;1.52;;
11504;SDS011;5809;53.262;10.408;2022-09-16T08:30:12;4.10;;;1.55;;
11504;SDS011;5809;53.262;10.408;2022-09-16T08:32:40;3.28;;;1.40;;
11504;SDS011;5809;53.262;10.408;2022-09-16T08:35:07;4.55;;;1.33;;
11504;SDS011;5809;53.262;10.408;2022-09-16T08:37:34;8.20;;;1.58;;
11504;SDS011;5809;53.262;10.408;2022-09-16T08:40:01;4.93;;;1.55;;
11504;SDS011;5809;53.262;10.408;2022-09-16T08:42:38;5.78;;;1.63;;
11504;SDS011;5809;53.262;10.408;2022-09-16T08:45:13;8.35;;;1.77;;
11504;SDS011;5809;53.262;10.408;2022-09-16T08:47:49;8.13;;;1.60;;
11504;SDS011;5809;53.262;10.408;2022-09-16T08:50:21;5.53;;;1.75;;
11504;SDS011;5809;53.262;10.408;2022-09-16T08:52:50;6.40;;;1.40;;
11504;SDS011;5809;53.262;10.408;2022-09-16T08:55:23;4.90;;;1.85;;
11504;SDS011;5809;53.262;10.408;2022-09-16T08:57:56;6.40;;;1.35;;
11504;SDS011;5809;53.262;10.408;2022-09-16T09:00:26;6.00;;;1.75;;
11504;SDS011;5809;53.262;10.408;2022-09-16T09:02:53;6.97;;;1.70;;
11504;SDS011;5809;53.262;10.408;2022-09-16T09:05:24;15.68;;;9.15;;
11504;SDS011;5809;53.262;10.408;2022-09-16T09:08:00;8.02;;;3.08;;
11504;SDS011;5809;53.262;10.408;2022-09-16T09:10:32;5.45;;;1.70;;
11504;SDS011;5809;53.262;10.408;2022-09-16T09:13:07;8.50;;;1.70;;
11504;SDS011;5809;53.262;10.408;2022-09-16T09:15:39;5.93;;;1.70;;
11504;SDS011;5809;53.262;10.408;2022-09-16T09:18:16;6.63;;;1.73;;
11504;SDS011;5809;53.262;10.408;2022-09-16T09:20:47;6.32;;;1.75;;
11504;SDS011;5809;53.262;10.408;2022-09-16T09:23:27;7.20;;;1.80;;
11504;SDS011;5809;53.262;10.408;2022-09-16T09:25:57;4.32;;;1.15;;
11504;SDS011;5809;53.262;10.408;2022-09-16T09:28:42;6.05;;;1.75;;
11504;SDS011;5809;53.262;10.408;2022-09-16T09:31:14;7.38;;;1.70;;
11504;SDS011;5809;53.262;10.408;2022-09-16T09:33:45;7.28;;;1.75;;
11504;SDS011;5809;53.262;10.408;2022-09-16T09:36:22;6.55;;;1.90;;
11504;SDS011;5809;53.262;10.408;2022-09-16T09:38:56;10.13;;;1.85;;
11504;SDS011;5809;53.262;10.408;2022-09-16T09:41:26;4.72;;;1.52;;
11504;SDS011;5809;53.262;10.408;2022-09-16T09:43:54;5.45;;;1.73;;
11504;SDS011;5809;53.262;10.408;2022-09-16T09:46:24;6.38;;;1.60;;
11504;SDS011;5809;53.262;10.408;2022-09-16T09:48:54;5.30;;;1.60;;
11504;SDS011;5809;53.262;10.408;2022-09-16T09:51:26;3.72;;;1.45;;
11504;SDS011;5809;53.262;10.408;2022-09-16T09:53:55;4.53;;;1.50;;
11504;SDS011;5809;53.262;10.408;2022-09-16T09:56:26;4.70;;;1.85;;
11504;SDS011;5809;53.262;10.408;2022-09-16T09:58:56;6.80;;;1.92;;
11504;SDS011;5809;53.262;10.408;2022-09-16T10:01:26;6.88;;;2.13;;
11504;SDS011;5809;53.262;10.408;2022-09-16T10:03:53;5.10;;;1.55;;
11504;SDS011;5809;53.262;10.408;2022-09-16T10:06:22;6.07;;;2.08;;
11504;SDS011;5809;53.262;10.408;2022-09-16T10:08:53;4.55;;;1.60;;
11504;SDS011;5809;53.262;10.408;2022-09-16T10:11:23;5.43;;;1.50;;
11504;SDS011;5809;53.262;10.408;2022-09-16T10:13:51;6.35;;;1.35;;
11504;SDS011;5809;53.262;10.408;2022-09-16T10:16:20;5.45;;;1.50;;
11504;SDS011;5809;53.262;10.408;2022-09-16T10:18:55;8.82;;;1.65;;
11504;SDS011;5809;53.262;10.408;2022-09-16T10:21:35;7.00;;;1.60;;
11504;SDS011;5809;53.262;10.408;2022-09-16T10:24:03;6.68;;;1.80;;
11504;SDS011;5809;53.262;10.408;2022-09-16T10:26:38;5.60;;;1.50;;
11504;SDS011;5809;53.262;10.408;2022-09-16T10:29:12;6.50;;;1.52;;
11504;SDS011;5809;53.262;10.408;2022-09-16T10:31:41;6.47;;;1.67;;
11504;SDS011;5809;53.262;10.408;2022-09-16T10:34:13;8.05;;;1.42;;
11504;SDS011;5809;53.262;10.408;2022-09-16T10:36:41;6.45;;;1.60;;
11504;SDS011;5809;53.262;10.408;2022-09-16T10:39:16;7.05;;;1.40;;
11504;SDS011;5809;53.262;10.408;2022-09-16T10:41:47;3.47;;;1.88;;
11504;SDS011;5809;53.262;10.408;2022-09-16T10:44:16;8.73;;;1.60;;
11504;SDS011;5809;53.262;10.408;2022-09-16T10:46:51;5.82;;;1.65;;
11504;SDS011;5809;53.262;10.408;2022-09-16T10:49:22;8.77;;;2.17;;
11504;SDS011;5809;53.262;10.408;2022-09-16T10:51:53;7.55;;;2.50;;
11504;SDS011;5809;53.262;10.408;2022-09-16T10:54:24;7.63;;;2.17;;
11504;SDS011;5809;53.262;10.408;2022-09-16T10:56:52;9.05;;;1.67;;
11504;SDS011;5809;53.262;10.408;2022-09-16T10:59:19;5.43;;;1.42;;
11504;SDS011;5809;53.262;10.408;2022-09-16T11:01:49;4.10;;;1.40;;
11504;SDS011;5809;53.262;10.408;2022-09-16T11:04:51;4.35;;;1.40;;
11504;SDS011;5809;53.262;10.408;2022-09-16T11:07:28;7.38;;;1.40;;
11504;SDS011;5809;53.262;10.408;2022-09-16T11:10:01;6.85;;;1.45;;
11504;SDS011;5809;53.262;10.408;2022-09-16T11:12:38;8.90;;;1.60;;
11504;SDS011;5809;53.262;10.408;2022-09-16T11:15:09;5.00;;;1.63;;
11504;SDS011;5809;53.262;10.408;2022-09-16T11:17:46;5.07;;;1.63;;
11504;SDS011;5809;53.262;10.408;2022-09-16T11:20:26;4.95;;;1.55;;
11504;SDS011;5809;53.262;10.408;2022-09-16T11:22:58;3.20;;;1.00;;
11504;SDS011;5809;53.262;10.408;2022-09-16T11:25:29;2.08;;;0.88;;
11504;SDS011;5809;53.262;10.408;2022-09-16T11:28:01;1.92;;;0.75;;
11504;SDS011;5809;53.262;10.408;2022-09-16T11:30:32;2.03;;;0.80;;
11504;SDS011;5809;53.262;10.408;2022-09-16T11:33:05;2.65;;;0.85;;
11504;SDS011;5809;53.262;10.408;2022-09-16T11:35:41;2.20;;;0.80;;
11504;SDS011;5809;53.262;10.408;2022-09-16T11:38:24;5.80;;;0.98;;
11504;SDS011;5809;53.262;10.408;2022-09-16T11:41:04;2.40;;;0.80;;
11504;SDS011;5809;53.262;10.408;2022-09-16T11:43:51;4.15;;;1.05;;
11504;SDS011;5809;53.262;10.408;2022-09-16T11:46:42;4.28;;;1.15;;
11504;SDS011;5809;53.262;10.408;2022-09-16T11:49:17;2.88;;;1.02;;
11504;SDS011;5809;53.262;10.408;2022-09-16T11:51:59;3.67;;;1.13;;
11504;SDS011;5809;53.262;10.408;2022-09-16T11:54:45;6.47;;;1.02;;
11504;SDS011;5809;53.262;10.408;2022-09-16T11:57:19;3.60;;;0.90;;
11504;SDS011;5809;53.262;10.408;2022-09-16T11:59:53;2.28;;;0.88;;
11504;SDS011;5809;53.262;10.408;2022-09-16T12:02:23;3.35;;;1.10;;
11504;SDS011;5809;53.262;10.408;2022-09-16T12:04:55;3.78;;;1.25;;
11504;SDS011;5809;53.262;10.408;2022-09-16T12:07:30;4.45;;;0.95;;
11504;SDS011;5809;53.262;10.408;2022-09-16T12:10:03;2.90;;;1.00;;
11504;SDS011;5809;53.262;10.408;2022-09-16T12:12:38;3.92;;;1.10;;
11504;SDS011;5809;53.262;10.408;2022-09-16T12:15:12;1.88;;;0.80;;
11504;SDS011;5809;53.262;10.408;2022-09-16T12:17:45;5.28;;;1.10;;
11504;SDS011;5809;53.262;10.408;2022-09-16T12:20:20;3.67;;;1.00;;
11504;SDS011;5809;53.262;10.408;2022-09-16T12:22:53;4.60;;;1.13;;
11504;SDS011;5809;53.262;10.408;2022-09-16T12:25:22;4.25;;;1.30;;
11504;SDS011;5809;53.262;10.408;2022-09-16T12:27:54;3.53;;;1.20;;
11504;SDS011;5809;53.262;10.408;2022-09-16T12:30:24;3.72;;;1.20;;
11504;SDS011;5809;53.262;10.408;2022-09-16T12:32:56;2.75;;;1.02;;
11504;SDS011;5809;53.262;10.408;2022-09-16T12:35:29;3.38;;;1.17;;
11504;SDS011;5809;53.262;10.408;2022-09-16T12:38:00;5.63;;;1.30;;
11504;SDS011;5809;53.262;10.408;2022-09-16T12:40:29;9.40;;;1.60;;
11504;SDS011;5809;53.262;10.408;2022-09-16T12:46:04;4.45;;;1.08;;
11504;SDS011;5809;53.262;10.408;2022-09-16T12:51:31;3.58;;;0.93;;
11504;SDS011;5809;53.262;10.408;2022-09-16T12:54:11;4.53;;;0.80;;
11504;SDS011;5809;53.262;10.408;2022-09-16T12:56:47;4.38;;;0.93;;
11504;SDS011;5809;53.262;10.408;2022-09-16T12:59:24;3.97;;;0.90;;
11504;SDS011;5809;53.262;10.408;2022-09-16T13:01:55;3.45;;;1.02;;
11504;SDS011;5809;53.262;10.408;2022-09-16T13:04:25;2.50;;;0.90;;
11504;SDS011;5809;53.262;10.408;2022-09-16T13:06:55;4.03;;;0.90;;
11504;SDS011;5809;53.262;10.408;2022-09-16T13:09:26;3.17;;;1.10;;
11504;SDS011;5809;53.262;10.408;2022-09-16T13:11:56;7.63;;;1.30;;
11504;SDS011;5809;53.262;10.408;2022-09-16T13:14:26;9.88;;;1.33;;
11504;SDS011;5809;53.262;10.408;2022-09-16T13:16:56;4.75;;;1.23;;
11504;SDS011;5809;53.262;10.408;2022-09-16T13:19:25;4.40;;;1.30;;
11504;SDS011;5809;53.262;10.408;2022-09-16T13:22:00;4.85;;;1.27;;
11504;SDS011;5809;53.262;10.408;2022-09-16T13:24:41;4.15;;;1.20;;
11504;SDS011;5809;53.262;10.408;2022-09-16T13:27:22;6.28;;;1.30;;
11504;SDS011;5809;53.262;10.408;2022-09-16T13:29:50;3.47;;;1.20;;
11504;SDS011;5809;53.262;10.408;2022-09-16T13:32:24;4.80;;;1.35;;
11504;SDS011;5809;53.262;10.408;2022-09-16T13:35:02;3.40;;;1.30;;
11504;SDS011;5809;53.262;10.408;2022-09-16T13:37:30;3.58;;;1.23;;
11504;SDS011;5809;53.262;10.408;2022-09-16T13:40:08;6.43;;;1.50;;
11504;SDS011;5809;53.262;10.408;2022-09-16T13:42:35;3.45;;;1.02;;
11504;SDS011;5809;53.262;10.408;2022-09-16T13:45:02;4.13;;;1.48;;
11504;SDS011;5809;53.262;10.408;2022-09-16T13:47:31;8.05;;;1.45;;
11504;SDS011;5809;53.262;10.408;2022-09-16T13:50:05;7.10;;;1.70;;
11504;SDS011;5809;53.262;10.408;2022-09-16T13:52:33;6.65;;;1.40;;
11504;SDS011;5809;53.262;10.408;2022-09-16T13:55:01;6.07;;;1.48;;
11504;SDS011;5809;53.262;10.408;2022-09-16T13:57:37;8.32;;;1.35;;
11504;SDS011;5809;53.262;10.408;2022-09-16T14:00:10;6.75;;;1.65;;
11504;SDS011;5809;53.262;10.408;2022-09-16T14:05:24;5.75;;;1.63;;
11504;SDS011;5809;53.262;10.408;2022-09-16T14:07:55;5.50;;;1.65;;
11504;SDS011;5809;53.262;10.408;2022-09-16T14:10:25;8.45;;;1.80;;
11504;SDS011;5809;53.262;10.408;2022-09-16T14:12:58;8.35;;;1.70;;
11504;SDS011;5809;53.262;10.408;2022-09-16T14:15:28;4.75;;;1.70;;
11504;SDS011;5809;53.262;10.408;2022-09-16T14:17:56;6.93;;;1.70;;
11504;SDS011;5809;53.262;10.408;2022-09-16T14:20:25;5.47;;;1.67;;
11504;SDS011;5809;53.262;10.408;2022-09-16T14:22:59;9.27;;;1.98;;
11504;SDS011;5809;53.262;10.408;2022-09-16T14:25:28;4.80;;;1.98;;
11504;SDS011;5809;53.262;10.408;2022-09-16T14:28:14;9.73;;;1.98;;
11504;SDS011;5809;53.262;10.408;2022-09-16T14:30:49;9.90;;;2.13;;
11504;SDS011;5809;53.262;10.408;2022-09-16T14:33:18;6.05;;;1.92;;
11504;SDS011;5809;53.262;10.408;2022-09-16T14:35:49;7.97;;;1.70;;
11504;SDS011;5809;53.262;10.408;2022-09-16T14:38:18;6.45;;;1.98;;
11504;SDS011;5809;53.262;10.408;2022-09-16T14:40:47;9.80;;;2.20;;
11504;SDS011;5809;53.262;10.408;2022-09-16T14:43:15;8.50;;;1.88;;
11504;SDS011;5809;53.262;10.408;2022-09-16T14:45:46;8.52;;;2.33;;
11504;SDS011;5809;53.262;10.408;2022-09-16T14:48:15;11.13;;;2.30;;
11504;SDS011;5809;53.262;10.408;2022-09-16T14:50:44;10.38;;;2.10;;
11504;SDS011;5809;53.262;10.408;2022-09-16T14:53:22;9.40;;;2.10;;
11504;SDS011;5809;53.262;10.408;2022-09-16T14:55:52;6.57;;;1.83;;
11504;SDS011;5809;53.262;10.408;2022-09-16T14:58:21;13.52;;;3.00;;
11504;SDS011;5809;53.262;10.408;2022-09-16T15:00:49;9.93;;;2.50;;
11504;SDS011;5809;53.262;10.408;2022-09-16T15:03:19;12.33;;;2.40;;
11504;SDS011;5809;53.262;10.408;2022-09-16T15:05:48;12.03;;;2.50;;
11504;SDS011;5809;53.262;10.408;2022-09-16T15:08:18;7.37;;;2.30;;
11504;SDS011;5809;53.262;10.408;2022-09-16T15:10:47;9.33;;;2.23;;
11504;SDS011;5809;53.262;10.408;2022-09-16T15:13:15;10.70;;;2.40;;